createdAt,value
2018-07-17T00:02:03.151Z,94588.55
2018-07-17T00:04:29.641Z,94583.45
2018-07-17T00:06:56.053Z,94578.22
2018-07-17T00:09:22.477Z,94591.30
2018-07-17T00:11:48.861Z,94591.28
2018-07-17T00:14:15.541Z,94592.84
2018-07-17T00:16:42.408Z,94597.02
2018-07-17T00:19:08.891Z,94588.30
2018-07-17T00:21:35.598Z,94584.70
2018-07-17T00:24:02.101Z,94587.97
2018-07-17T00:26:28.435Z,94591.38
2018-07-17T00:28:54.897Z,94597.84
2018-07-17T00:31:21.306Z,94593.19
2018-07-17T00:33:47.671Z,94598.09
2018-07-17T00:36:14.771Z,94589.73
2018-07-17T00:38:41.429Z,94575.88
2018-07-17T00:41:07.820Z,94565.67
2018-07-17T00:43:34.321Z,94565.14
2018-07-17T00:46:00.860Z,94572.81
2018-07-17T00:48:27.317Z,94576.34
2018-07-17T00:51:01.262Z,94588.58
2018-07-17T00:53:27.650Z,94568.66
2018-07-17T00:55:54.128Z,94576.55
2018-07-17T00:58:20.732Z,94572.47
2018-07-17T01:00:47.167Z,94570.18
2018-07-17T01:03:13.717Z,94566.37
2018-07-17T01:05:40.154Z,94569.85
2018-07-17T01:08:06.524Z,94576.30
2018-07-17T01:10:33.033Z,94579.51
2018-07-17T01:12:59.383Z,94581.87
2018-07-17T01:15:26.121Z,94571.28
2018-07-17T01:17:52.805Z,94574.82
2018-07-17T01:20:19.157Z,94569.78
2018-07-17T01:22:45.526Z,94578.25
2018-07-17T01:25:12.007Z,94578.67
2018-07-17T01:27:38.424Z,94572.48
2018-07-17T01:30:04.851Z,94571.45
2018-07-17T01:32:31.258Z,94575.53
2018-07-17T01:34:57.677Z,94563.58
2018-07-17T01:37:24.047Z,94563.18
2018-07-17T01:39:50.383Z,94555.72
2018-07-17T01:42:16.733Z,94559.98
2018-07-17T01:44:43.076Z,94562.42
2018-07-17T01:47:09.486Z,94557.68
2018-07-17T01:49:35.931Z,94542.91
2018-07-17T01:52:02.270Z,94548.12
2018-07-17T01:54:28.644Z,94542.83
2018-07-17T01:56:55.073Z,94545.18
2018-07-17T01:59:21.759Z,94540.25
2018-07-17T02:01:48.143Z,94535.42
2018-07-17T02:04:14.541Z,94519.20
2018-07-17T02:06:42.858Z,94528.82
2018-07-17T02:09:09.300Z,94539.41
2018-07-17T02:11:35.759Z,94532.51
2018-07-17T02:14:02.236Z,94529.19
2018-07-17T02:16:28.660Z,94527.22
2018-07-17T02:18:55.339Z,94523.39
2018-07-17T02:21:21.956Z,94528.00
2018-07-17T02:23:48.303Z,94518.56
2018-07-17T02:26:14.748Z,94516.53
2018-07-17T02:28:41.139Z,94525.42
2018-07-17T02:31:07.655Z,94520.91
2018-07-17T02:33:34.141Z,94525.92
2018-07-17T02:36:00.649Z,94528.56
2018-07-17T02:38:27.059Z,94530.13
2018-07-17T02:40:53.443Z,94527.13
2018-07-17T02:43:19.822Z,94524.28
2018-07-17T02:45:46.334Z,94516.90
2018-07-17T02:48:13.371Z,94516.68
2018-07-17T02:50:39.957Z,94506.72
2018-07-17T02:53:06.350Z,94504.26
2018-07-17T02:55:32.806Z,94496.45
2018-07-17T02:57:59.325Z,94483.84
2018-07-17T03:00:25.691Z,94492.26
2018-07-17T03:02:52.140Z,94493.05
2018-07-17T03:05:18.635Z,94499.86
2018-07-17T03:07:45.091Z,94509.40
2018-07-17T03:10:11.653Z,94508.25
2018-07-17T03:12:38.316Z,94506.22
2018-07-17T03:15:04.679Z,94509.21
2018-07-17T03:17:31.065Z,94510.97
2018-07-17T03:19:57.707Z,94516.59
2018-07-17T03:22:24.121Z,94510.35
2018-07-17T03:24:50.527Z,94495.09
2018-07-17T03:27:16.853Z,94499.63
2018-07-17T03:29:43.274Z,94496.58
2018-07-17T03:32:09.686Z,94510.70
2018-07-17T03:34:36.108Z,94510.69
2018-07-17T03:37:02.499Z,94515.39
2018-07-17T03:39:28.971Z,94518.03
2018-07-17T03:41:55.307Z,94517.62
2018-07-17T03:44:21.682Z,94510.46
2018-07-17T03:46:48.218Z,94508.36
2018-07-17T03:49:14.580Z,94516.83
2018-07-17T03:51:40.920Z,94507.33
2018-07-17T03:54:07.495Z,94507.25
2018-07-17T03:56:33.913Z,94513.97
2018-07-17T03:59:00.237Z,94509.53
2018-07-17T04:01:26.636Z,94510.83
2018-07-17T04:03:52.991Z,94512.02
2018-07-17T04:06:19.330Z,94519.11
2018-07-17T04:08:45.918Z,94506.33
2018-07-17T04:11:12.519Z,94514.59
2018-07-17T04:13:38.912Z,94504.48
2018-07-17T04:16:05.329Z,94513.92
2018-07-17T04:18:32.009Z,94523.06
2018-07-17T04:20:58.368Z,94513.48
2018-07-17T04:23:24.696Z,94509.20
2018-07-17T04:25:51.066Z,94511.98
2018-07-17T04:28:17.569Z,94529.58
2018-07-17T04:30:43.929Z,94523.75
2018-07-17T04:33:10.557Z,94520.22
2018-07-17T04:35:36.996Z,94527.28
2018-07-17T04:38:03.400Z,94507.59
2018-07-17T04:40:29.964Z,94505.45
2018-07-17T04:42:56.382Z,94501.64
2018-07-17T04:45:22.795Z,94497.30
2018-07-17T04:47:49.457Z,94507.44
2018-07-17T04:50:16.174Z,94497.39
2018-07-17T04:52:42.543Z,94507.22
2018-07-17T04:55:09.212Z,94507.03
2018-07-17T04:57:35.827Z,94511.85
2018-07-17T05:00:02.398Z,94513.61
2018-07-17T05:02:28.767Z,94514.21
2018-07-17T05:04:55.279Z,94522.84
2018-07-17T05:07:22.022Z,94517.73
2018-07-17T05:09:48.679Z,94521.73
2018-07-17T05:12:16.997Z,94520.09
2018-07-17T05:14:43.591Z,94525.45
2018-07-17T05:17:10.000Z,94522.81
2018-07-17T05:19:36.763Z,94511.66
2018-07-17T05:22:03.123Z,94497.61
2018-07-17T05:24:30.636Z,94499.80
2018-07-17T05:26:57.115Z,94498.34
2018-07-17T05:29:23.539Z,94499.09
2018-07-17T05:31:50.202Z,94501.34
2018-07-17T05:34:16.584Z,94507.38
2018-07-17T05:36:43.892Z,94503.05
2018-07-17T05:39:10.415Z,94498.22
2018-07-17T05:41:37.593Z,94496.41
2018-07-17T05:44:05.166Z,94495.30
2018-07-17T05:46:31.936Z,94496.20
2018-07-17T05:48:58.397Z,94495.42
2018-07-17T05:51:24.826Z,94491.31
2018-07-17T05:53:51.497Z,94491.95
2018-07-17T05:56:18.095Z,94489.11
2018-07-17T05:58:46.210Z,94472.88
2018-07-17T06:01:12.794Z,94473.01
2018-07-17T06:03:41.868Z,94473.23
2018-07-17T06:06:09.118Z,94468.95
2018-07-17T06:08:35.845Z,94461.25
2018-07-17T06:11:02.409Z,94455.25
2018-07-17T06:13:28.943Z,94463.94
2018-07-17T06:15:55.561Z,94455.91
2018-07-17T06:18:21.999Z,94463.08
2018-07-17T06:20:48.414Z,94451.02
2018-07-17T06:23:15.044Z,94450.06
2018-07-17T06:25:41.702Z,94457.36
2018-07-17T06:28:08.367Z,94463.51
2018-07-17T06:30:35.261Z,94460.98
2018-07-17T06:33:01.875Z,94462.55
2018-07-17T06:35:28.240Z,94463.52
2018-07-17T06:37:54.820Z,94455.30
2018-07-17T06:40:21.635Z,94470.02
2018-07-17T06:42:48.116Z,94468.09
2018-07-17T06:45:14.790Z,94477.73
2018-07-17T06:47:43.538Z,94475.98
2018-07-17T06:50:10.151Z,94477.82
2018-07-17T06:52:36.892Z,94480.09
2018-07-17T06:55:03.509Z,94479.98
2018-07-17T06:57:30.331Z,94456.41
2018-07-17T06:59:58.104Z,94470.95
2018-07-17T07:02:24.798Z,94468.23
2018-07-17T07:04:52.581Z,94484.63
2018-07-17T07:07:19.140Z,94490.45
2018-07-17T07:09:45.797Z,94484.88
2018-07-17T07:12:12.665Z,94482.99
2018-07-17T07:14:39.203Z,94490.23
2018-07-17T07:17:05.993Z,94474.13
2018-07-17T07:19:32.705Z,94489.98
2018-07-17T07:21:59.561Z,94491.50
2018-07-17T07:24:27.129Z,94491.36
2018-07-17T07:26:54.035Z,94491.57
2018-07-17T07:29:20.636Z,94491.22
2018-07-17T07:31:47.235Z,94481.24
2018-07-17T07:34:14.038Z,94486.64
2018-07-17T07:36:41.601Z,94484.47
2018-07-17T07:39:08.602Z,94481.83
2018-07-17T07:41:38.243Z,94481.88
2018-07-17T07:44:05.171Z,94491.70
2018-07-17T07:46:32.000Z,94497.17
2018-07-17T07:48:58.534Z,94494.88
2018-07-17T07:51:24.986Z,94509.33
2018-07-17T07:53:52.738Z,94517.83
2018-07-17T07:56:20.435Z,94537.72
2018-07-17T07:58:46.999Z,94563.80
2018-07-17T08:01:14.829Z,94580.77
2018-07-17T08:03:42.152Z,94600.77
2018-07-17T08:06:09.052Z,94633.62
2018-07-17T08:11:14.439Z,94607.05
2018-07-17T08:13:41.308Z,94580.65
2018-07-17T08:16:08.237Z,94580.17
2018-07-17T08:18:34.960Z,94579.06
2018-07-17T08:21:01.616Z,94563.09
2018-07-17T08:23:28.163Z,94543.64
2018-07-17T08:25:55.040Z,94541.59
2018-07-17T08:28:21.780Z,94540.18
2018-07-17T08:30:48.338Z,94539.00
2018-07-17T08:33:15.050Z,94544.22
2018-07-17T08:35:41.656Z,94569.55
2018-07-17T08:38:08.053Z,94570.56
2018-07-17T08:40:34.551Z,94580.59
2018-07-17T08:43:01.039Z,94580.23
2018-07-17T08:45:27.873Z,94566.81
2018-07-17T08:47:55.586Z,94575.06
2018-07-17T08:50:22.440Z,94566.84
2018-07-17T08:52:49.284Z,94560.66
2018-07-17T08:55:16.024Z,94560.25
2018-07-17T08:57:43.057Z,94556.34
2018-07-17T09:00:10.079Z,94534.37
2018-07-17T09:02:36.741Z,94509.42
2018-07-17T09:05:04.286Z,94507.09
2018-07-17T09:07:31.101Z,94508.73
2018-07-17T09:09:57.828Z,94516.62
2018-07-17T09:12:24.299Z,94513.38
2018-07-17T09:14:51.618Z,94504.87
2018-07-17T09:17:18.459Z,94492.70
2018-07-17T09:19:44.942Z,94491.41
2018-07-17T09:22:11.755Z,94500.66
2018-07-17T09:24:38.353Z,94494.36
2018-07-17T09:27:04.942Z,94479.97
2018-07-17T09:29:31.491Z,94484.69
2018-07-17T09:31:58.200Z,94485.32
2018-07-17T09:34:24.648Z,94475.62
2018-07-17T09:36:51.002Z,94493.26
2018-07-17T09:39:17.560Z,94482.84
2018-07-17T09:41:44.243Z,94489.91
2018-07-17T09:44:11.443Z,94486.66
2018-07-17T09:46:38.379Z,94475.86
2018-07-17T09:49:05.231Z,94481.31
2018-07-17T09:51:31.842Z,94482.20
2018-07-17T09:53:58.574Z,94483.86
2018-07-17T09:56:25.206Z,94473.45
2018-07-17T09:58:51.976Z,94468.40
2018-07-17T10:01:18.736Z,94472.86
2018-07-17T10:03:45.403Z,94465.95
2018-07-17T10:06:12.285Z,94474.87
2018-07-17T10:08:39.044Z,94471.59
2018-07-17T10:11:05.775Z,94474.42
2018-07-17T10:13:32.442Z,94477.41
2018-07-17T10:15:58.938Z,94476.12
2018-07-17T10:18:25.674Z,94465.28
2018-07-17T10:20:52.336Z,94463.62
2018-07-17T10:23:19.104Z,94461.70
2018-07-17T10:25:45.987Z,94459.75
2018-07-17T10:28:12.513Z,94450.28
2018-07-17T10:30:46.529Z,94452.85
2018-07-17T10:33:13.384Z,94450.91
2018-07-17T10:35:40.345Z,94445.11
2018-07-17T10:38:07.030Z,94440.61
2018-07-17T10:40:33.677Z,94440.57
2018-07-17T10:43:00.450Z,94432.23
2018-07-17T10:45:27.145Z,94446.71
2018-07-17T10:47:54.029Z,94452.96
2018-07-17T10:50:21.392Z,94442.42
2018-07-17T10:52:48.067Z,94435.81
2018-07-17T10:55:14.706Z,94424.45
2018-07-17T10:57:41.353Z,94424.63
2018-07-17T11:00:07.979Z,94437.27
2018-07-17T11:02:34.699Z,94427.80
2018-07-17T11:05:01.278Z,94438.49
2018-07-17T11:07:27.920Z,94431.61
2018-07-17T11:09:54.653Z,94424.96
2018-07-17T11:12:21.693Z,94427.55
2018-07-17T11:14:48.464Z,94434.39
2018-07-17T11:17:15.165Z,94421.80
2018-07-17T11:19:41.912Z,94418.08
2018-07-17T11:22:08.737Z,94417.82
2018-07-17T11:24:35.330Z,94404.19
2018-07-17T11:27:02.202Z,94407.05
2018-07-17T11:29:29.116Z,94396.59
2018-07-17T11:31:55.937Z,94394.86
2018-07-17T11:34:22.964Z,94378.89
2018-07-17T11:36:49.716Z,94382.50
2018-07-17T11:39:16.598Z,94370.56
2018-07-17T11:41:43.408Z,94371.58
2018-07-17T11:44:10.303Z,94380.88
2018-07-17T11:46:37.475Z,94375.70
2018-07-17T11:49:04.653Z,94365.21
2018-07-17T11:51:31.255Z,94362.59
2018-07-17T11:53:59.590Z,94356.80
2018-07-17T11:56:26.251Z,94356.05
2018-07-17T11:58:52.952Z,94357.28
2018-07-17T12:03:50.764Z,94364.50
2018-07-17T12:06:17.897Z,94364.73
2018-07-17T12:08:45.478Z,94377.88
2018-07-17T12:11:18.406Z,94375.80
2018-07-17T12:13:47.051Z,94368.55
2018-07-17T12:16:15.908Z,94374.47
2018-07-17T12:18:44.681Z,94385.95
2018-07-17T12:21:12.144Z,94385.06
2018-07-17T12:23:46.817Z,94380.02
2018-07-17T12:26:17.209Z,94376.11
2018-07-17T12:41:38.759Z,94345.63
2018-07-17T12:44:13.275Z,94343.70
2018-07-17T12:46:40.362Z,94345.80
2018-07-17T12:52:17.740Z,94344.78
2018-07-17T12:54:44.710Z,94344.07
2018-07-17T12:57:14.806Z,94347.64
2018-07-17T12:59:48.492Z,94329.80
2018-07-17T13:04:51.802Z,94339.17
2018-07-17T13:09:59.212Z,94340.94
2018-07-17T13:15:03.178Z,94348.26
2018-07-17T13:17:30.595Z,94348.84
2018-07-17T13:22:42.239Z,94340.33
2018-07-17T13:25:12.398Z,94336.28
2018-07-17T13:27:42.498Z,94333.05
2018-07-17T14:01:58.919Z,94302.57
2018-07-17T14:07:11.020Z,94297.38
2018-07-17T14:09:37.852Z,94294.70
2018-07-17T14:12:09.455Z,94306.23
2018-07-17T14:14:43.287Z,94297.38
2018-07-17T14:31:12.618Z,94291.30
2018-07-17T14:33:40.141Z,94281.70
2018-07-17T14:36:06.461Z,94286.56
2018-07-17T14:38:32.959Z,94284.37
2018-07-17T14:40:59.377Z,94278.20
2018-07-17T14:43:25.833Z,94278.72
2018-07-17T14:45:52.185Z,94283.56
2018-07-17T14:48:18.575Z,94283.06
2018-07-17T14:50:45.189Z,94279.90
2018-07-17T14:53:11.563Z,94285.94
2018-07-17T14:55:38.242Z,94272.53
2018-07-17T14:58:04.651Z,94275.89
2018-07-17T15:00:31.234Z,94281.00
2018-07-17T15:02:57.781Z,94281.33
2018-07-17T15:05:24.225Z,94277.77
2018-07-17T15:07:50.864Z,94279.53
2018-07-17T15:10:17.324Z,94280.41
2018-07-17T15:12:43.776Z,94274.98
2018-07-17T15:15:10.133Z,94266.69
2018-07-17T15:17:36.937Z,94280.05
2018-07-17T15:20:03.607Z,94277.11
2018-07-17T15:22:30.136Z,94270.64
2018-07-17T15:24:56.547Z,94268.66
2018-07-17T15:27:23.063Z,94261.11
2018-07-17T15:29:49.509Z,94260.48
2018-07-17T15:32:16.299Z,94259.05
2018-07-17T15:34:42.962Z,94249.81
2018-07-17T15:37:09.526Z,94259.91
2018-07-17T15:39:36.170Z,94270.20
2018-07-17T15:42:02.768Z,94263.81
2018-07-17T15:44:29.589Z,94267.12
2018-07-17T15:46:56.124Z,94266.92
2018-07-17T15:49:22.713Z,94274.69
2018-07-17T15:51:49.122Z,94277.23
2018-07-17T15:54:15.506Z,94276.86
2018-07-17T15:56:42.093Z,94285.45
2018-07-17T15:59:08.643Z,94284.26
2018-07-17T16:01:35.277Z,94289.74
2018-07-17T16:04:01.695Z,94290.66
2018-07-17T16:06:28.085Z,94292.20
2018-07-17T16:08:54.467Z,94289.75
2018-07-17T16:11:20.902Z,94293.59
2018-07-17T16:13:47.444Z,94284.44
2018-07-17T16:16:14.167Z,94294.75
2018-07-17T16:18:40.805Z,94296.69
2018-07-17T16:21:07.309Z,94301.66
2018-07-17T16:23:33.730Z,94304.07
2018-07-17T16:26:00.134Z,94307.47
2018-07-17T16:28:26.769Z,94305.19
2018-07-17T16:30:53.182Z,94299.51
2018-07-17T16:33:19.731Z,94298.69
2018-07-17T16:35:46.150Z,94297.45
2018-07-17T16:38:12.634Z,94296.48
2018-07-17T16:40:40.251Z,94289.80
2018-07-17T16:43:06.602Z,94293.09
2018-07-17T16:45:32.934Z,94291.09
2018-07-17T16:47:59.340Z,94307.01
2018-07-17T16:50:25.837Z,94310.95
2018-07-17T16:52:52.311Z,94306.46
2018-07-17T16:55:18.689Z,94312.05
2018-07-17T16:57:45.030Z,94317.01
2018-07-17T17:00:11.494Z,94315.81
2018-07-17T17:02:37.919Z,94312.52
2018-07-17T17:05:04.347Z,94318.34
2018-07-17T17:07:30.699Z,94317.36
2018-07-17T17:09:57.127Z,94327.55
2018-07-17T17:12:23.468Z,94319.27
2018-07-17T17:14:49.886Z,94325.19
2018-07-17T17:17:16.555Z,94322.65
2018-07-17T17:19:43.012Z,94325.54
2018-07-17T17:22:09.543Z,94327.72
2018-07-17T17:24:35.944Z,94329.08
2018-07-17T17:27:02.441Z,94333.57
2018-07-17T17:29:28.930Z,94330.89
2018-07-17T17:31:55.291Z,94330.81
2018-07-17T17:34:21.622Z,94332.59
2018-07-17T17:36:48.031Z,94335.78
2018-07-17T17:39:14.439Z,94332.30
2018-07-17T17:41:40.875Z,94331.05
2018-07-17T17:44:07.406Z,94327.95
2018-07-17T17:46:34.025Z,94345.62
2018-07-17T17:49:00.369Z,94343.47
2018-07-17T17:51:26.734Z,94348.39
2018-07-17T17:53:53.094Z,94354.22
2018-07-17T17:56:19.494Z,94344.59
2018-07-17T17:58:46.272Z,94347.00
2018-07-17T18:01:12.926Z,94337.27
2018-07-17T18:03:39.294Z,94337.94
2018-07-17T18:06:05.686Z,94344.61
2018-07-17T18:08:32.072Z,94343.98
2018-07-17T18:10:58.434Z,94349.77
2018-07-17T18:13:24.750Z,94351.50
2018-07-17T18:15:51.356Z,94355.17
2018-07-17T18:18:17.976Z,94353.67
2018-07-17T18:20:44.508Z,94367.83
2018-07-17T18:23:10.892Z,94365.89
2018-07-17T18:25:37.336Z,94365.38
2018-07-17T18:28:03.859Z,94369.73
2018-07-17T18:30:30.380Z,94379.14
2018-07-17T18:32:56.912Z,94376.27
2018-07-17T18:35:23.264Z,94386.53
2018-07-17T18:37:49.592Z,94379.93
2018-07-17T18:40:15.925Z,94380.48
2018-07-17T18:42:42.494Z,94382.45
2018-07-17T18:45:08.979Z,94382.75
2018-07-17T18:47:35.376Z,94383.27
2018-07-17T18:50:12.584Z,94389.80
2018-07-17T18:52:28.227Z,94394.38
2018-07-17T18:54:54.637Z,94401.09
2018-07-17T18:57:21.335Z,94412.80
2018-07-17T18:59:47.814Z,94414.56
2018-07-17T19:02:14.359Z,94422.53
2018-07-17T19:04:40.753Z,94420.96
2018-07-17T19:07:07.411Z,94426.29
2018-07-17T19:09:33.814Z,94434.45
2018-07-17T19:12:00.185Z,94435.88
2018-07-17T19:14:26.835Z,94442.34
2018-07-17T19:16:53.269Z,94435.27
2018-07-17T19:21:52.190Z,94436.54
2018-07-17T19:24:18.615Z,94436.13
2018-07-17T19:26:45.163Z,94435.38
2018-07-17T19:29:11.745Z,94439.59
2018-07-17T19:31:38.407Z,94429.19
2018-07-17T19:34:05.007Z,94430.16
2018-07-17T19:36:31.409Z,94436.73
2018-07-17T19:38:57.751Z,94435.39
2018-07-17T19:41:24.164Z,94431.03
2018-07-17T19:43:50.514Z,94440.45
2018-07-17T19:46:16.881Z,94436.80
2018-07-17T19:48:43.279Z,94436.92
2018-07-17T19:51:09.646Z,94438.20
2018-07-17T19:53:36.004Z,94438.38
2018-07-17T19:56:02.441Z,94439.27
2018-07-17T19:58:28.802Z,94442.56
2018-07-17T20:00:55.313Z,94440.56
2018-07-17T20:03:21.637Z,94429.59
2018-07-17T20:05:48.003Z,94441.62
2018-07-17T20:08:14.532Z,94438.63
2018-07-17T20:10:40.930Z,94438.67
2018-07-17T20:13:07.393Z,94434.80
2018-07-17T20:15:33.780Z,94436.70
2018-07-17T20:18:00.108Z,94440.27
2018-07-17T20:20:26.422Z,94441.33
2018-07-17T20:22:52.750Z,94440.95
2018-07-17T20:25:19.136Z,94445.63
2018-07-17T20:27:45.554Z,94444.80
2018-07-17T20:30:11.978Z,94441.27
2018-07-17T20:32:38.340Z,94434.41
2018-07-17T20:35:04.741Z,94435.41
2018-07-17T20:37:31.110Z,94431.45
2018-07-17T20:39:57.432Z,94435.52
2018-07-17T20:42:23.798Z,94437.21
2018-07-17T20:44:50.165Z,94433.16
2018-07-17T20:47:16.495Z,94435.87
2018-07-17T20:49:42.982Z,94427.52
2018-07-17T20:52:09.386Z,94428.41
2018-07-17T20:54:35.793Z,94438.20
2018-07-17T20:57:02.196Z,94417.72
2018-07-17T20:59:28.559Z,94433.64
2018-07-17T21:01:54.987Z,94427.86
2018-07-17T21:04:21.326Z,94430.40
2018-07-17T21:06:47.692Z,94426.56
2018-07-17T21:09:14.040Z,94420.23
2018-07-17T21:11:40.449Z,94426.16
2018-07-17T21:14:06.787Z,94428.98
2018-07-17T21:16:33.174Z,94424.99
2018-07-17T21:18:59.525Z,94437.02
2018-07-17T21:21:25.856Z,94434.08
2018-07-17T21:23:52.194Z,94441.41
2018-07-17T21:26:18.543Z,94445.66
2018-07-17T21:28:44.972Z,94442.83
2018-07-17T21:31:11.299Z,94433.56
2018-07-17T21:33:37.640Z,94440.49
2018-07-17T21:36:03.987Z,94439.53
2018-07-17T21:38:30.401Z,94433.73
2018-07-17T21:40:56.788Z,94422.05
2018-07-17T21:43:23.124Z,94439.88
2018-07-17T21:45:49.584Z,94436.95
2018-07-17T21:48:15.989Z,94444.13
2018-07-17T21:50:42.417Z,94442.94
2018-07-17T21:53:08.812Z,94444.98
2018-07-17T21:55:35.143Z,94442.66
2018-07-17T21:58:01.519Z,94444.77
2018-07-17T22:00:27.859Z,94450.75
2018-07-17T22:02:54.179Z,94457.20
2018-07-17T22:05:20.541Z,94455.38
2018-07-17T22:07:46.895Z,94454.75
2018-07-17T22:10:13.236Z,94458.69
2018-07-17T22:12:39.613Z,94461.30
2018-07-17T22:15:06.046Z,94462.72
2018-07-17T22:17:32.429Z,94460.02
2018-07-17T22:19:58.758Z,94458.85
2018-07-17T22:22:25.173Z,94452.49
2018-07-17T22:24:51.541Z,94465.25
2018-07-17T22:27:17.899Z,94458.79
2018-07-17T22:29:44.282Z,94459.04
2018-07-17T22:32:10.602Z,94458.95
2018-07-17T22:34:36.971Z,94461.56
2018-07-17T22:37:03.379Z,94462.25
2018-07-17T22:39:29.740Z,94463.30
2018-07-17T22:41:56.085Z,94468.05
2018-07-17T22:44:22.417Z,94467.07
2018-07-17T22:46:48.762Z,94466.69
2018-07-17T22:49:15.134Z,94469.49
2018-07-17T22:51:41.609Z,94471.26
2018-07-17T22:54:07.944Z,94474.38
2018-07-17T22:56:34.272Z,94473.02
2018-07-17T22:59:00.680Z,94479.60
2018-07-17T23:01:27.427Z,94479.73
2018-07-17T23:03:53.759Z,94474.59
2018-07-17T23:06:20.103Z,94482.53
2018-07-17T23:08:46.513Z,94472.48
2018-07-17T23:11:13.037Z,94467.83
2018-07-17T23:13:39.499Z,94469.49
2018-07-17T23:16:05.840Z,94472.77
2018-07-17T23:18:32.218Z,94478.94
2018-07-17T23:23:30.932Z,94466.94
2018-07-17T23:25:57.303Z,94465.59
2018-07-17T23:28:23.737Z,94466.78
2018-07-17T23:30:50.225Z,94470.44
2018-07-17T23:33:16.759Z,94466.25
2018-07-17T23:35:43.096Z,94469.53
2018-07-17T23:38:09.667Z,94468.42
2018-07-17T23:40:36.046Z,94468.92
2018-07-17T23:43:02.559Z,94467.77
2018-07-17T23:45:29.007Z,94472.86
2018-07-17T23:47:55.328Z,94476.80
2018-07-17T23:50:21.669Z,94477.33
2018-07-17T23:52:48.013Z,94477.89
2018-07-17T23:55:14.603Z,94477.61
2018-07-17T23:57:41.055Z,94476.88
